createdAt,value
2018-10-09T00:02:46.759Z,28.37
2018-10-09T00:07:50.684Z,31.37
2018-10-09T00:12:54.383Z,27.03
2018-10-09T00:17:58.016Z,24.60
2018-10-09T00:23:01.601Z,28.57
2018-10-09T00:29:09.144Z,22.87
2018-10-09T00:34:12.868Z,20.77
2018-10-09T00:39:16.555Z,15.10
2018-10-09T00:44:20.595Z,22.27
2018-10-09T00:49:24.407Z,21.13
2018-10-09T00:54:27.908Z,13.43
2018-10-09T00:59:31.480Z,20.70
2018-10-09T01:04:35.890Z,18.03
2018-10-09T01:09:39.507Z,21.47
2018-10-09T01:14:43.652Z,18.47
2018-10-09T01:19:47.548Z,28.07
2018-10-09T01:24:51.191Z,11.90
2018-10-09T01:29:54.794Z,21.20
2018-10-09T01:34:58.528Z,25.70
2018-10-09T01:40:02.733Z,23.00
2018-10-09T01:45:06.343Z,27.23
2018-10-09T01:50:11.002Z,37.97
2018-10-09T01:55:14.594Z,20.10
2018-10-09T02:00:18.115Z,34.70
2018-10-09T02:05:21.890Z,25.93
2018-10-09T02:10:25.240Z,25.63
2018-10-09T02:15:29.013Z,24.13
2018-10-09T02:20:32.728Z,20.57
2018-10-09T02:25:36.524Z,42.67
2018-10-09T02:30:39.812Z,22.13
2018-10-09T02:35:43.359Z,21.33
2018-10-09T02:40:46.817Z,29.90
2018-10-09T02:45:50.492Z,31.20
2018-10-09T02:50:54.811Z,22.37
2018-10-09T02:55:58.563Z,30.70
2018-10-09T03:01:01.965Z,25.23
2018-10-09T03:06:05.581Z,37.17
2018-10-09T03:11:09.464Z,24.27
2018-10-09T03:16:13.319Z,22.50
2018-10-09T03:21:17.126Z,29.47
2018-10-09T03:26:20.405Z,27.40
2018-10-09T03:31:23.719Z,20.03
2018-10-09T03:36:27.724Z,30.27
2018-10-09T03:41:31.003Z,22.43
2018-10-09T03:46:34.681Z,27.70
2018-10-09T03:51:38.232Z,36.03
2018-10-09T03:56:41.764Z,25.53
2018-10-09T04:01:45.364Z,28.93
2018-10-09T04:06:49.591Z,36.87
2018-10-09T04:11:53.468Z,30.93
2018-10-09T04:16:57.560Z,37.97
2018-10-09T04:22:01.061Z,31.20
2018-10-09T04:27:04.628Z,31.27
2018-10-09T04:32:08.395Z,37.37
2018-10-09T04:37:12.204Z,43.43
2018-10-09T04:42:15.733Z,47.53
2018-10-09T04:47:20.284Z,55.43
2018-10-09T04:52:26.800Z,30.20
2018-10-09T04:57:30.710Z,36.43
2018-10-09T05:02:34.332Z,34.57
2018-10-09T05:07:37.959Z,44.40
2018-10-09T05:12:41.304Z,49.07
2018-10-09T05:17:44.962Z,44.93
2018-10-09T05:22:54.730Z,50.27
2018-10-09T05:27:58.131Z,46.27
2018-10-09T05:33:01.495Z,31.33
2018-10-09T05:38:04.980Z,38.93
2018-10-09T05:43:08.244Z,36.00
2018-10-09T05:48:11.704Z,56.20
2018-10-09T05:53:19.232Z,36.17
2018-10-09T05:58:22.588Z,31.63
2018-10-09T06:03:25.886Z,41.07
2018-10-09T06:08:29.447Z,36.50
2018-10-09T06:13:32.748Z,25.67
2018-10-09T06:18:36.452Z,43.70
2018-10-09T06:23:40.232Z,35.90
2018-10-09T06:28:44.337Z,36.07
2018-10-09T06:33:47.941Z,35.50
2018-10-09T06:38:51.892Z,31.13
2018-10-09T06:43:55.184Z,38.73
2018-10-09T06:48:58.454Z,28.70
2018-10-09T06:54:01.986Z,29.80
2018-10-09T06:59:05.508Z,44.73
2018-10-09T07:04:08.802Z,54.43
2018-10-09T07:09:12.505Z,40.20
2018-10-09T07:14:15.815Z,37.80
2018-10-09T07:19:19.083Z,27.83
2018-10-09T07:24:27.370Z,33.07
2018-10-09T07:29:31.669Z,50.03
2018-10-09T07:34:34.932Z,39.03
2018-10-09T07:39:39.444Z,55.97
2018-10-09T07:44:42.758Z,49.40
2018-10-09T07:49:46.042Z,46.47
2018-10-09T07:54:49.384Z,44.13
2018-10-09T07:59:53.047Z,35.20
2018-10-09T08:04:56.597Z,50.30
2018-10-09T08:10:00.328Z,41.07
2018-10-09T08:15:03.656Z,48.30
2018-10-09T08:20:06.961Z,41.53
2018-10-09T08:25:10.273Z,55.83
2018-10-09T08:30:13.672Z,47.50
2018-10-09T08:35:17.240Z,43.93
2018-10-09T08:40:20.632Z,53.53
2018-10-09T08:45:23.881Z,45.00
2018-10-09T08:50:27.178Z,62.83
2018-10-09T08:55:30.629Z,52.53
2018-10-09T09:00:33.917Z,39.90
2018-10-09T09:05:37.498Z,51.07
2018-10-09T09:10:40.938Z,34.80
2018-10-09T09:15:45.004Z,42.07
2018-10-09T09:20:48.314Z,33.20
2018-10-09T09:25:51.668Z,46.87
2018-10-09T09:30:55.078Z,41.53
2018-10-09T09:35:58.875Z,45.80
2018-10-09T09:41:02.585Z,52.57
2018-10-09T09:46:11.375Z,50.73
2018-10-09T09:51:15.308Z,40.53
2018-10-09T09:56:18.724Z,50.93
2018-10-09T10:01:27.595Z,44.90
2018-10-09T10:06:31.035Z,34.10
2018-10-09T10:11:35.040Z,34.73
2018-10-09T10:16:38.436Z,37.00
2018-10-09T10:21:43.841Z,32.00
2018-10-09T10:26:47.757Z,37.07
2018-10-09T10:31:51.092Z,28.00
2018-10-09T10:36:54.392Z,31.63
2018-10-09T10:41:58.055Z,29.57
2018-10-09T10:47:01.332Z,35.83
2018-10-09T10:52:04.656Z,33.30
2018-10-09T10:57:07.973Z,24.27
2018-10-09T11:02:11.330Z,35.77
2018-10-09T11:07:14.628Z,32.97
2018-10-09T11:12:18.744Z,27.90
2018-10-09T11:17:22.052Z,28.17
2018-10-09T11:22:25.320Z,37.70
2018-10-09T11:27:28.659Z,32.33
2018-10-09T11:32:31.997Z,27.90
2018-10-09T11:37:35.274Z,26.93
2018-10-09T11:42:38.847Z,43.37
2018-10-09T11:47:42.492Z,35.60
2018-10-09T11:52:45.752Z,42.17
2018-10-09T11:57:49.141Z,29.23
2018-10-09T12:02:52.489Z,30.90
2018-10-09T12:07:55.784Z,33.07
2018-10-09T12:12:59.648Z,40.17
2018-10-09T12:18:03.264Z,38.17
2018-10-09T12:23:06.578Z,29.90
2018-10-09T12:28:09.944Z,33.07
2018-10-09T12:33:13.251Z,32.80
2018-10-09T12:38:16.600Z,28.33
2018-10-09T12:43:19.936Z,34.63
2018-10-09T12:48:23.587Z,34.57
2018-10-09T12:53:27.100Z,38.53
2018-10-09T12:58:30.473Z,32.17
2018-10-09T13:03:33.770Z,32.73
2018-10-09T13:08:37.085Z,33.57
2018-10-09T13:13:40.488Z,31.27
2018-10-09T13:18:43.778Z,51.83
2018-10-09T13:23:48.500Z,48.80
2018-10-09T13:28:51.865Z,38.03
2018-10-09T13:33:55.198Z,42.27
2018-10-09T13:38:58.568Z,44.00
2018-10-09T13:44:02.094Z,44.13
2018-10-09T13:49:11.326Z,41.53
2018-10-09T13:54:15.933Z,41.97
2018-10-09T13:59:19.280Z,32.20
2018-10-09T14:04:22.621Z,26.67
2018-10-09T14:09:25.915Z,41.00
2018-10-09T14:14:29.458Z,33.57
2018-10-09T14:19:32.792Z,32.83
2018-10-09T14:24:36.525Z,33.63
2018-10-09T14:29:39.896Z,38.50
2018-10-09T14:34:43.226Z,45.50
2018-10-09T14:39:46.584Z,36.43
2018-10-09T14:44:50.560Z,37.90
2018-10-09T14:49:53.921Z,46.23
2018-10-09T14:54:57.322Z,50.00
2018-10-09T15:00:00.944Z,43.50
2018-10-09T15:05:04.569Z,57.70
2018-10-09T15:10:11.439Z,41.20
2018-10-09T15:15:15.391Z,40.80
2018-10-09T15:20:18.738Z,43.67
2018-10-09T15:25:22.000Z,35.40
2018-10-09T15:30:25.923Z,45.27
2018-10-09T15:35:32.574Z,42.40
2018-10-09T15:40:36.949Z,37.93
2018-10-09T15:45:40.495Z,35.47
2018-10-09T15:50:43.798Z,36.10
2018-10-09T15:55:47.148Z,34.73
2018-10-09T16:00:50.797Z,39.20
2018-10-09T16:05:54.124Z,39.63
2018-10-09T16:10:57.556Z,41.70
2018-10-09T16:16:01.027Z,47.90
2018-10-09T16:21:04.375Z,38.30
2018-10-09T16:26:07.674Z,36.80
2018-10-09T16:31:11.070Z,24.77
2018-10-09T16:36:15.268Z,31.63
2018-10-09T16:41:18.591Z,40.10
2018-10-09T16:46:22.149Z,42.63
2018-10-09T16:51:25.626Z,34.03
2018-10-09T16:56:29.275Z,32.47
2018-10-09T17:01:32.758Z,46.63
2018-10-09T17:06:36.176Z,35.13
2018-10-09T17:11:40.405Z,44.87
2018-10-09T17:16:43.962Z,69.33
2018-10-09T17:21:47.281Z,58.70
2018-10-09T17:26:51.357Z,28.27
2018-10-09T17:31:54.732Z,52.47
2018-10-09T17:36:58.375Z,44.60
2018-10-09T17:42:01.807Z,34.43
2018-10-09T17:47:07.940Z,79.67
2018-10-09T17:52:11.844Z,66.93
2018-10-09T17:57:15.325Z,69.63
2018-10-09T18:02:19.164Z,64.47
2018-10-09T18:07:23.715Z,79.00
2018-10-09T18:12:27.197Z,69.67
2018-10-09T18:17:31.791Z,73.27
2018-10-09T18:22:36.381Z,77.67
2018-10-09T18:27:40.866Z,64.97
2018-10-09T18:32:45.654Z,78.00
2018-10-09T18:37:49.863Z,68.90
2018-10-09T18:42:53.838Z,71.70
2018-10-09T18:47:59.001Z,61.80
2018-10-09T18:53:03.023Z,67.00
2018-10-09T18:58:07.815Z,83.00
2018-10-09T19:03:11.974Z,81.37
2018-10-09T19:08:15.676Z,70.70
2018-10-09T19:13:19.441Z,52.60
2018-10-09T19:18:23.270Z,44.80
2018-10-09T19:23:27.189Z,37.57
2018-10-09T19:28:31.678Z,37.97
2018-10-09T19:33:35.542Z,31.87
2018-10-09T19:38:40.146Z,24.37
2018-10-09T19:43:44.021Z,51.63
2018-10-09T19:48:48.412Z,34.73
2018-10-09T19:53:52.985Z,34.93
2018-10-09T19:58:56.482Z,29.00
2018-10-09T20:04:00.723Z,28.83
2018-10-09T20:09:09.534Z,40.10
2018-10-09T20:14:14.728Z,50.20
2018-10-09T20:19:18.656Z,33.90
2018-10-09T20:24:24.696Z,39.53
2018-10-09T20:29:28.201Z,55.20
2018-10-09T20:34:32.456Z,43.87
2018-10-09T20:39:39.020Z,41.33
2018-10-09T20:44:42.876Z,50.63
2018-10-09T20:49:46.637Z,46.27
2018-10-09T20:54:50.047Z,46.03
2018-10-09T20:59:53.569Z,45.70
2018-10-09T21:04:57.055Z,51.83
2018-10-09T21:10:00.535Z,40.83
2018-10-09T21:15:04.471Z,49.13
2018-10-09T21:20:08.148Z,50.80
2018-10-09T21:25:11.539Z,51.93
2018-10-09T21:30:14.853Z,48.50
2018-10-09T21:35:18.289Z,63.43
2018-10-09T21:40:21.720Z,47.40
2018-10-09T21:45:25.328Z,44.43
2018-10-09T21:50:28.831Z,46.87
2018-10-09T21:55:32.130Z,47.73
2018-10-09T22:00:40.841Z,47.30
2018-10-09T22:05:44.141Z,43.57
2018-10-09T22:10:47.816Z,51.17
2018-10-09T22:15:52.164Z,47.43
2018-10-09T22:20:56.738Z,50.23
2018-10-09T22:26:00.712Z,50.47
2018-10-09T22:31:04.488Z,45.97
2018-10-09T22:36:08.360Z,48.00
2018-10-09T22:41:11.915Z,50.00
2018-10-09T22:46:15.661Z,45.07
2018-10-09T22:51:19.416Z,49.33
2018-10-09T22:56:23.028Z,46.97
2018-10-09T23:01:26.719Z,40.13
2018-10-09T23:06:31.184Z,53.93
2018-10-09T23:11:34.987Z,42.47
2018-10-09T23:16:39.889Z,47.57
2018-10-09T23:21:45.725Z,54.47
2018-10-09T23:26:49.831Z,58.00
2018-10-09T23:31:53.331Z,52.53
2018-10-09T23:36:58.243Z,49.47
2018-10-09T23:42:07.994Z,45.50
2018-10-09T23:47:12.298Z,43.67
2018-10-09T23:52:16.266Z,45.27
2018-10-09T23:57:20.346Z,45.77
